createdAt,value
2023-04-02T11:01:44.303Z,90.40
2023-04-02T11:03:37.795Z,97.20
2023-04-02T11:05:17.337Z,104.60
2023-04-02T11:06:58.091Z,109.00
2023-04-02T11:08:46.825Z,102.00
2023-04-02T11:10:20.006Z,108.20
2023-04-02T11:11:56.019Z,270.67
2023-04-02T11:13:33.532Z,210.00
2023-04-02T11:15:09.422Z,173.00
2023-04-02T11:16:44.593Z,164.25
2023-04-02T11:18:36.037Z,163.50
2023-04-02T11:20:45.599Z,167.25
2023-04-02T11:22:17.977Z,164.25
2023-04-02T11:24:00.626Z,146.00
2023-04-02T11:25:32.538Z,152.50
2023-04-02T11:27:10.020Z,146.25
2023-04-02T11:28:41.931Z,146.50
2023-04-02T11:30:18.265Z,148.00
2023-04-02T11:31:51.359Z,138.50
2023-04-02T11:33:39.184Z,145.50
2023-04-02T11:35:30.832Z,150.75
2023-04-02T11:37:07.763Z,140.00
2023-04-02T11:38:46.512Z,198.67
2023-04-02T11:40:18.449Z,173.25
2023-04-02T11:42:03.696Z,174.75
2023-04-02T11:43:36.004Z,183.00
2023-04-02T11:45:28.966Z,176.75
2023-04-02T11:47:20.130Z,171.00
2023-04-02T11:48:54.854Z,176.00
2023-04-02T11:50:45.159Z,160.00
2023-04-02T11:52:22.296Z,164.00
2023-04-02T11:53:54.340Z,147.75
2023-04-02T11:55:30.868Z,145.00
2023-04-02T11:57:28.495Z,145.00
2023-04-02T11:59:06.446Z,132.25
2023-04-02T12:00:57.607Z,148.50
2023-04-02T12:02:30.573Z,129.00
2023-04-02T12:04:34.646Z,125.25
2023-04-02T12:06:13.545Z,128.50
2023-04-02T12:07:55.942Z,133.00
2023-04-02T12:09:49.773Z,134.25
2023-04-02T12:11:32.182Z,113.00
2023-04-02T12:13:04.061Z,108.00
2023-04-02T12:14:46.593Z,123.00
2023-04-02T12:16:18.510Z,106.00
2023-04-02T12:17:50.508Z,106.80
2023-04-02T12:19:22.992Z,107.60
2023-04-02T12:20:56.517Z,107.40
2023-04-02T12:22:30.206Z,99.00
2023-04-02T12:24:02.081Z,98.20
2023-04-02T12:25:40.120Z,100.50
2023-04-02T12:27:22.892Z,87.75
2023-04-02T12:28:56.441Z,95.75
2023-04-02T12:30:28.416Z,81.00
2023-04-02T12:32:00.406Z,86.50
2023-04-02T12:33:37.268Z,83.50
2023-04-02T12:35:28.330Z,79.75
2023-04-02T12:37:04.499Z,82.75
2023-04-02T12:38:43.760Z,81.25
2023-04-02T12:40:17.460Z,81.75
2023-04-02T12:41:49.374Z,77.00
2023-04-02T12:43:28.921Z,70.75
2023-04-02T12:45:01.237Z,75.50
2023-04-02T12:46:36.061Z,74.00
2023-04-02T12:48:10.007Z,78.50
2023-04-02T12:49:42.234Z,80.00
2023-04-02T12:51:14.122Z,80.50
2023-04-02T12:52:47.019Z,76.25
2023-04-02T12:54:20.620Z,81.75
2023-04-02T12:55:52.768Z,76.00
2023-04-02T12:57:27.768Z,78.00
2023-04-02T12:59:00.721Z,85.25
2023-04-02T13:00:33.210Z,79.00
2023-04-02T13:02:23.625Z,77.75
2023-04-02T13:04:06.210Z,78.25
2023-04-02T13:05:43.003Z,88.25
2023-04-02T13:07:17.758Z,81.00
2023-04-02T13:08:49.844Z,80.75
2023-04-02T13:10:26.042Z,84.25
2023-04-02T13:11:57.990Z,82.50
2023-04-02T13:13:33.166Z,78.75
2023-04-02T13:15:29.066Z,81.50
2023-04-02T13:17:01.152Z,79.75
2023-04-02T13:18:33.759Z,80.75
2023-04-02T13:20:28.197Z,78.50
2023-04-02T13:22:01.190Z,92.50
2023-04-02T13:23:35.286Z,92.50
2023-04-02T13:25:07.417Z,78.75
2023-04-02T13:26:39.425Z,77.50
2023-04-02T13:28:11.280Z,74.00
2023-04-02T13:29:43.194Z,72.50
2023-04-02T13:31:16.590Z,74.25
2023-04-02T13:32:48.551Z,71.00
2023-04-02T13:34:20.547Z,64.25
2023-04-02T13:35:52.433Z,63.25
2023-04-02T13:37:24.463Z,71.25
2023-04-02T13:38:56.648Z,71.00
2023-04-02T13:40:28.537Z,76.00
2023-04-02T13:42:03.987Z,78.00
2023-04-02T13:43:35.939Z,78.75
2023-04-02T13:45:17.089Z,81.00
2023-04-02T13:46:49.142Z,78.50
2023-04-02T13:48:24.739Z,80.75
2023-04-02T13:49:56.714Z,79.25
2023-04-02T13:51:37.394Z,82.75
2023-04-02T13:53:13.403Z,89.25
2023-04-02T13:54:46.229Z,97.00
2023-04-02T13:56:19.614Z,85.25
2023-04-02T13:57:51.796Z,90.75
2023-04-02T13:59:24.552Z,86.50
2023-04-02T14:00:56.943Z,88.50
2023-04-02T14:02:29.251Z,92.50
2023-04-02T14:04:01.815Z,91.25
2023-04-02T14:05:53.895Z,90.50
2023-04-02T14:07:40.710Z,90.25
2023-04-02T14:09:31.321Z,94.75
2023-04-02T14:11:29.560Z,80.00
2023-04-02T14:13:12.019Z,82.25
2023-04-02T14:15:22.383Z,81.00
2023-04-02T14:17:18.859Z,79.67
2023-04-02T14:19:15.327Z,80.00
2023-04-02T14:21:25.588Z,74.00
2023-04-02T14:22:57.467Z,81.50
2023-04-02T14:24:41.659Z,77.75
2023-04-02T14:26:18.065Z,78.00
2023-04-02T14:28:28.387Z,70.00
2023-04-02T14:30:33.220Z,75.50
2023-04-02T14:32:36.151Z,80.75
2023-04-02T14:34:09.773Z,82.50
2023-04-02T14:35:46.576Z,76.75
2023-04-02T14:37:23.764Z,80.75
2023-04-02T14:39:04.375Z,83.25
2023-04-02T14:40:49.759Z,83.25
2023-04-02T14:43:14.041Z,82.50
2023-04-02T14:44:56.100Z,81.25
2023-04-02T14:46:28.836Z,81.00
2023-04-02T14:48:03.412Z,83.00
2023-04-02T14:49:39.646Z,83.75
2023-04-02T14:51:26.434Z,79.00
2023-04-02T14:53:00.611Z,82.50
2023-04-02T14:54:50.304Z,81.33
2023-04-02T14:56:22.261Z,82.25
2023-04-02T14:57:54.822Z,372.00
2023-04-02T14:59:45.596Z,250.00
2023-04-02T15:01:34.187Z,205.00
2023-04-02T15:03:11.983Z,172.00
2023-04-02T15:04:54.007Z,148.25
2023-04-02T15:06:34.780Z,136.25
2023-04-02T15:08:23.087Z,130.50
2023-04-02T15:10:27.007Z,119.50
2023-04-02T15:12:11.426Z,122.75
2023-04-02T15:13:52.575Z,116.60
2023-04-02T15:15:43.666Z,105.20
2023-04-02T15:17:15.710Z,104.00
2023-04-02T15:18:51.534Z,101.60
2023-04-02T15:20:23.499Z,103.00
2023-04-02T15:22:09.951Z,102.20
2023-04-02T15:24:19.677Z,92.40
2023-04-02T15:25:56.471Z,95.00
2023-04-02T15:27:42.891Z,90.50
2023-04-02T15:29:39.229Z,93.50
2023-04-02T15:31:14.656Z,91.25
2023-04-02T15:32:46.825Z,86.50
2023-04-02T15:34:32.462Z,85.00
2023-04-02T15:36:35.532Z,78.50
2023-04-02T15:38:26.731Z,77.25
2023-04-02T15:40:19.618Z,79.25
2023-04-02T15:42:04.244Z,78.25
2023-04-02T15:43:36.138Z,74.75
2023-04-02T15:45:10.528Z,75.50
2023-04-02T15:47:18.968Z,78.50
2023-04-02T15:49:29.073Z,82.00
2023-04-02T15:51:00.887Z,98.50
2023-04-02T15:52:43.338Z,98.00
2023-04-02T15:54:36.786Z,96.00
2023-04-02T15:56:31.370Z,100.25
2023-04-02T15:58:28.858Z,95.75
2023-04-02T16:00:04.292Z,94.75
2023-04-02T16:02:18.451Z,91.00
2023-04-02T16:04:04.180Z,94.50
2023-04-02T16:05:39.055Z,96.50
2023-04-02T16:07:24.396Z,99.75
2023-04-02T16:09:12.158Z,96.75
2023-04-02T16:10:45.908Z,105.00
2023-04-02T16:12:19.332Z,134.00
2023-04-02T16:13:51.305Z,97.80
2023-04-02T16:15:30.641Z,84.25
2023-04-02T16:17:17.600Z,88.25
2023-04-02T16:18:59.107Z,94.75
2023-04-02T16:20:33.045Z,82.75
2023-04-02T16:22:18.416Z,81.25
2023-04-02T16:23:50.654Z,87.75
2023-04-02T16:25:24.315Z,91.25
2023-04-02T16:27:29.881Z,84.75
2023-04-02T16:29:26.505Z,92.40
2023-04-02T16:31:34.861Z,95.75
2023-04-02T16:33:18.717Z,106.60
2023-04-02T16:35:19.269Z,118.40
2023-04-02T16:37:06.242Z,144.25
2023-04-02T16:38:59.019Z,132.00
2023-04-02T16:40:33.941Z,111.00
2023-04-02T16:42:06.283Z,114.50
2023-04-02T16:43:48.423Z,107.20
2023-04-02T16:45:35.664Z,109.40
2023-04-02T16:47:26.636Z,109.00
2023-04-02T16:49:05.165Z,96.60
2023-04-02T16:50:47.886Z,101.60
2023-04-02T16:52:38.009Z,93.50
2023-04-02T16:54:48.059Z,97.00
2023-04-02T16:56:46.093Z,85.25
2023-04-02T16:58:37.404Z,89.75
2023-04-02T17:00:27.016Z,88.00
2023-04-02T17:02:04.604Z,88.75
2023-04-02T17:03:39.335Z,85.75
2023-04-02T17:05:26.275Z,80.50
2023-04-02T17:07:22.947Z,83.00
2023-04-02T17:09:01.136Z,83.25
2023-04-02T17:10:37.934Z,80.75
2023-04-02T17:12:11.346Z,78.75
2023-04-02T17:13:47.830Z,75.00
2023-04-02T17:15:27.735Z,74.50
2023-04-02T17:17:03.925Z,74.50
2023-04-02T17:18:35.952Z,273.75
2023-04-02T17:20:14.817Z,357.00
2023-04-02T17:21:48.941Z,274.00
2023-04-02T17:23:21.020Z,215.00
2023-04-02T17:24:59.388Z,191.33
2023-04-02T17:26:32.753Z,164.00
2023-04-02T17:28:04.770Z,147.75
2023-04-02T17:29:38.497Z,156.50
2023-04-02T17:31:30.938Z,129.75
2023-04-02T17:33:05.981Z,128.50
2023-04-02T17:34:37.920Z,120.00
2023-04-02T17:36:32.913Z,115.75
2023-04-02T17:38:04.822Z,126.00
2023-04-02T17:39:52.363Z,121.75
2023-04-02T17:41:32.108Z,125.00
2023-04-02T17:43:15.920Z,124.00
2023-04-02T17:44:47.740Z,127.00
2023-04-02T17:46:44.748Z,119.75
2023-04-02T17:48:22.210Z,128.75
2023-04-02T17:49:56.765Z,112.50
2023-04-02T17:51:40.310Z,112.75
2023-04-02T17:53:45.923Z,111.00
2023-04-02T17:55:37.411Z,107.60
2023-04-02T17:57:28.405Z,107.00
2023-04-02T17:59:41.317Z,95.00
2023-04-02T18:01:22.542Z,99.75
2023-04-02T18:03:08.723Z,100.25
2023-04-02T18:04:46.287Z,105.00
2023-04-02T18:06:32.469Z,94.25
2023-04-02T18:08:12.609Z,102.25
2023-04-02T18:10:07.402Z,94.50
2023-04-02T18:11:45.046Z,84.25
2023-04-02T18:13:42.220Z,81.50
2023-04-02T18:15:39.456Z,84.50
2023-04-02T18:17:17.109Z,81.25
2023-04-02T18:19:09.061Z,78.75
2023-04-02T18:20:52.520Z,76.25
2023-04-02T18:22:33.297Z,74.75
2023-04-02T18:24:20.302Z,70.25
2023-04-02T18:26:36.519Z,76.00
2023-04-02T18:28:17.130Z,75.25
2023-04-02T18:30:09.477Z,70.25
2023-04-02T18:32:11.592Z,64.50
2023-04-02T18:33:54.367Z,71.00
2023-04-02T18:35:39.851Z,71.75
2023-04-02T18:37:52.624Z,74.75
2023-04-02T18:39:45.834Z,75.00
2023-04-02T18:41:31.533Z,80.25
2023-04-02T18:43:16.739Z,82.00
2023-04-02T18:45:13.307Z,79.00
2023-04-02T18:46:56.502Z,77.67
2023-04-02T18:48:48.535Z,81.00
2023-04-02T18:50:31.309Z,83.25
2023-04-02T18:52:11.743Z,80.25
2023-04-02T18:53:44.012Z,82.25
2023-04-02T18:55:21.294Z,79.00
2023-04-02T18:56:53.250Z,79.75
2023-04-02T18:58:46.532Z,75.75
2023-04-02T19:00:26.423Z,78.50
2023-04-02T19:01:58.300Z,77.50
2023-04-02T19:03:32.975Z,77.50
2023-04-02T19:05:18.067Z,69.50
2023-04-02T19:06:54.090Z,76.75
2023-04-02T19:08:48.235Z,77.50
2023-04-02T19:10:34.684Z,75.50
2023-04-02T19:12:19.388Z,70.50
2023-04-02T19:13:51.542Z,69.25
2023-04-02T19:15:26.018Z,73.00
2023-04-02T19:17:01.818Z,67.50
2023-04-02T19:19:14.987Z,69.75
2023-04-02T19:21:15.248Z,72.00
2023-04-02T19:23:05.187Z,70.50
2023-04-02T19:24:48.307Z,67.25
2023-04-02T19:26:23.050Z,54.75
2023-04-02T19:28:28.538Z,56.80
2023-04-02T19:30:24.338Z,59.20
2023-04-02T19:32:12.090Z,57.80
2023-04-02T19:33:57.019Z,55.40
2023-04-02T19:35:32.277Z,56.60
2023-04-02T19:37:23.710Z,53.20
2023-04-02T19:39:04.541Z,55.40
2023-04-02T19:41:03.728Z,58.80
2023-04-02T19:42:41.256Z,70.50
2023-04-02T19:44:13.472Z,67.50
2023-04-02T19:45:47.898Z,72.75
2023-04-02T19:47:19.843Z,74.50
2023-04-02T19:48:52.100Z,76.00
2023-04-02T19:50:24.347Z,77.25
2023-04-02T19:51:57.074Z,74.75
2023-04-02T19:53:29.038Z,75.00
2023-04-02T19:55:01.050Z,73.75
2023-04-02T19:56:32.953Z,70.75
2023-04-02T19:58:18.804Z,67.25
2023-04-02T19:59:51.684Z,72.50
2023-04-02T20:01:23.572Z,72.75
2023-04-02T20:02:55.597Z,79.00
2023-04-02T20:04:27.535Z,72.25
2023-04-02T20:06:00.071Z,76.00
2023-04-02T20:07:32.008Z,72.00
2023-04-02T20:09:03.957Z,75.25
2023-04-02T20:10:36.240Z,78.00
2023-04-02T20:12:08.326Z,74.50
2023-04-02T20:13:40.204Z,70.50
2023-04-02T20:15:12.218Z,68.50
2023-04-02T20:16:45.369Z,71.25
2023-04-02T20:18:18.222Z,70.00
2023-04-02T20:19:50.086Z,65.50
2023-04-02T20:21:21.935Z,62.75
2023-04-02T20:22:53.913Z,69.75
2023-04-02T20:24:25.872Z,65.25
2023-04-02T20:25:57.751Z,59.75
2023-04-02T20:27:29.715Z,59.75
2023-04-02T20:29:01.724Z,56.25
2023-04-02T20:30:33.704Z,59.20
2023-04-02T20:32:05.827Z,53.80
2023-04-02T20:33:38.154Z,53.00
2023-04-02T20:35:10.194Z,54.20
2023-04-02T20:36:42.193Z,54.80
2023-04-02T20:38:14.083Z,50.80
2023-04-02T20:39:46.186Z,50.00
2023-04-02T20:41:18.293Z,49.20
2023-04-02T20:42:52.143Z,47.00
2023-04-02T20:44:23.997Z,47.60
2023-04-02T20:46:01.150Z,43.40
2023-04-02T20:47:33.367Z,44.80
2023-04-02T20:49:05.287Z,47.00
2023-04-02T20:50:37.470Z,36.60
2023-04-02T20:52:09.656Z,37.40
2023-04-02T20:53:41.614Z,46.80
2023-04-02T20:55:13.617Z,34.80
2023-04-02T20:56:45.557Z,36.80
2023-04-02T20:58:18.265Z,30.60
2023-04-02T20:59:50.168Z,37.80
2023-04-02T21:01:26.697Z,28.60
2023-04-02T21:03:00.247Z,19.80
2023-04-02T21:04:32.299Z,31.80
2023-04-02T21:06:04.443Z,32.80
2023-04-02T21:07:36.481Z,28.80
2023-04-02T21:09:16.049Z,21.60
2023-04-02T21:10:47.936Z,26.20
2023-04-02T21:12:19.962Z,24.00
2023-04-02T21:13:51.978Z,22.20
2023-04-02T21:15:23.851Z,29.40
2023-04-02T21:16:55.829Z,30.20
2023-04-02T21:18:27.769Z,17.20
2023-04-02T21:19:59.660Z,17.00
2023-04-02T21:21:31.835Z,18.80
2023-04-02T21:23:03.693Z,17.20
2023-04-02T21:24:35.630Z,16.00
2023-04-02T21:26:07.776Z,16.20
2023-04-02T21:27:39.643Z,18.60
2023-04-02T21:29:11.862Z,29.80
2023-04-02T21:30:43.732Z,48.20
2023-04-02T21:32:21.748Z,45.40
2023-04-02T21:33:55.747Z,49.40
2023-04-02T21:35:27.682Z,46.40
2023-04-02T21:36:59.806Z,35.80
2023-04-02T21:38:31.699Z,55.40
2023-04-02T21:40:03.947Z,56.40
2023-04-02T21:41:37.540Z,53.00
2023-04-02T21:43:09.413Z,55.50
2023-04-02T21:44:41.255Z,57.40
2023-04-02T21:46:13.136Z,57.80
2023-04-02T21:47:45.020Z,60.00
2023-04-02T21:49:18.283Z,63.00
2023-04-02T21:50:50.113Z,61.75
2023-04-02T21:52:22.193Z,62.00
2023-04-02T21:53:54.419Z,64.25
2023-04-02T21:55:26.453Z,57.25
2023-04-02T21:56:58.401Z,61.00
2023-04-02T21:58:30.504Z,66.00
2023-04-02T22:00:02.632Z,75.75
2023-04-02T22:01:38.753Z,76.50
2023-04-02T22:03:13.605Z,73.75
2023-04-02T22:04:47.734Z,73.00
2023-04-02T22:06:20.526Z,77.50
2023-04-02T22:07:52.546Z,75.75
2023-04-02T22:09:25.260Z,76.75
2023-04-02T22:10:57.150Z,75.00
2023-04-02T22:12:29.150Z,74.25
2023-04-02T22:14:03.516Z,78.00
2023-04-02T22:15:35.757Z,79.00
2023-04-02T22:17:07.926Z,76.50
2023-04-02T22:18:40.061Z,78.75
2023-04-02T22:20:12.321Z,76.75
2023-04-02T22:21:44.282Z,73.25
2023-04-02T22:23:17.318Z,74.25
2023-04-02T22:24:49.612Z,73.75
2023-04-02T22:26:23.106Z,74.00
2023-04-02T22:27:54.996Z,74.00
2023-04-02T22:29:26.903Z,72.50
2023-04-02T22:31:11.725Z,127.75
2023-04-02T22:32:45.214Z,125.00
2023-04-02T22:34:17.224Z,110.00
